Time;durP1;ratioP1;P1;durP2;ratioP2;P2;SDS_P1;SDS_P2;PMS_P1;PMS_P2;Temp;Humidity;BMP_temperature;BMP_pressure;BME280_temperature;BME280_humidity;BME280_pressure;Samples;Min_cycle;Max_cycle;Signal;HPM_P1;HPM_P2
2022/05/26 00:01:04;;;;;;;7.63;4.68;;;;;;;8.57;61.30;98926.13;5040266;28;20536;-71
2022/05/26 00:03:29;;;;;;;8.15;4.78;;;;;;;8.58;60.76;98913.66;5040937;28;20039;-73
2022/05/26 00:05:54;;;;;;;10.57;5.07;;;;;;;8.59;60.78;98920.69;5040303;28;20054;-72
2022/05/26 00:08:19;;;;;;;10.52;5.63;;;;;;;8.61;61.33;98916.09;5057568;28;20043;-75
2022/05/26 00:10:43;;;;;;;8.10;4.90;;;;;;;8.54;60.73;98913.06;5023697;28;20039;-73
2022/05/26 00:13:08;;;;;;;8.40;4.47;;;;;;;8.52;61.36;98917.66;5057204;28;20050;-70
2022/05/26 00:15:33;;;;;;;9.48;5.25;;;;;;;8.48;61.39;98907.34;5073363;28;20039;-71
2022/05/26 00:17:58;;;;;;;8.30;4.65;;;;;;;8.42;60.77;98898.03;5039573;28;20096;-70
2022/05/26 00:20:23;;;;;;;9.35;4.63;;;;;;;8.38;61.30;98908.03;5074584;28;20043;-69
2022/05/26 00:22:48;;;;;;;8.02;5.28;;;;;;;8.33;61.73;98899.59;5040825;28;20418;-67
2022/05/26 00:25:13;;;;;;;11.48;5.50;;;;;;;8.26;61.36;98887.66;5039706;28;20461;-68
2022/05/26 00:27:37;;;;;;;8.32;5.38;;;;;;;8.18;62.00;98894.50;5094421;28;20054;-68
2022/05/26 00:30:03;;;;;;;8.98;4.38;;;;;;;8.17;61.94;98903.44;5076567;28;20035;-68
2022/05/26 00:32:29;;;;;;;13.48;4.53;;;;;;;8.13;61.69;98884.22;5094860;28;20051;-68
2022/05/26 00:34:53;;;;;;;7.70;4.07;;;;;;;8.08;61.86;98889.03;5094372;28;20049;-68
2022/05/26 00:37:18;;;;;;;14.43;4.50;;;;;;;8.06;61.64;98896.25;5058997;28;20043;-68
2022/05/26 00:39:43;;;;;;;7.82;4.20;;;;;;;8.03;62.41;98884.06;5076046;28;20465;-71
2022/05/26 00:42:08;;;;;;;6.22;4.18;;;;;;;7.99;62.07;98887.06;5042984;28;20031;-67
2022/05/26 00:44:34;;;;;;;5.35;3.83;;;;;;;7.96;62.13;98882.81;5098360;28;20039;-71
2022/05/26 00:47:03;;;;;;;5.22;3.70;;;;;;;7.96;61.88;98882.81;5045593;28;20038;-70
2022/05/26 00:49:43;;;;;;;6.45;3.88;;;;;;;7.89;62.30;98873.63;5069147;28;20531;-71
2022/05/26 00:52:14;;;;;;;5.53;3.63;;;;;;;7.90;61.75;98877.13;5053665;28;20048;-67
2022/05/26 00:54:41;;;;;;;6.47;4.20;;;;;;;7.89;62.47;98875.41;5058954;28;20431;-67
2022/05/26 00:57:30;;;;;;;5.35;3.80;;;;;;;7.93;62.30;98871.56;5078536;28;20035;-68
2022/05/26 01:00:03;;;;;;;10.80;4.22;;;;;;;7.92;62.32;98867.22;5076012;28;20051;-68
2022/05/26 01:02:34;;;;;;;7.50;3.50;;;;;;;7.93;62.02;98858.28;5077359;28;20047;-68
2022/05/26 01:05:01;;;;;;;6.78;3.63;;;;;;;7.96;61.82;98863.38;5086003;28;20047;-68
2022/05/26 01:07:31;;;;;;;4.43;3.13;;;;;;;8.01;61.47;98871.88;5070687;28;20121;-68
2022/05/26 01:09:56;;;;;;;6.43;3.75;;;;;;;8.02;61.18;98847.00;5081117;28;20062;-70
2022/05/26 01:12:21;;;;;;;5.40;3.50;;;;;;;8.04;61.40;98861.00;5057339;28;20039;-68
2022/05/26 01:14:51;;;;;;;5.40;3.60;;;;;;;8.08;62.14;98854.53;5057442;28;20054;-71
2022/05/26 01:17:16;;;;;;;6.13;3.88;;;;;;;8.08;61.45;98845.72;5059194;28;20061;-69
2022/05/26 01:20:05;;;;;;;7.82;3.88;;;;;;;8.15;61.43;98852.25;5074594;28;20031;-72
2022/05/26 01:22:36;;;;;;;5.93;3.80;;;;;;;8.17;61.75;98845.88;5073793;28;20050;-69
2022/05/26 01:25:19;;;;;;;6.05;3.95;;;;;;;8.15;61.54;98842.47;5058800;28;20410;-69
2022/05/26 01:27:51;;;;;;;4.22;3.38;;;;;;;8.18;61.40;98836.09;5072823;28;20048;-69
2022/05/26 01:30:24;;;;;;;4.45;3.65;;;;;;;8.23;61.63;98840.13;5076907;28;20040;-70
2022/05/26 01:33:19;;;;;;;5.88;3.67;;;;;;;8.30;61.28;98840.50;5075297;28;20047;-72
2022/05/26 01:35:50;;;;;;;5.13;4.20;;;;;;;8.33;60.96;98833.19;5052797;28;20032;-70
2022/05/26 01:38:30;;;;;;;5.82;3.63;;;;;;;8.38;61.85;98833.69;5057774;28;20481;-70
2022/05/26 01:41:20;;;;;;;6.70;4.20;;;;;;;8.47;61.68;98836.59;5075762;28;20039;-71
2022/05/26 01:44:00;;;;;;;4.55;3.35;;;;;;;8.51;60.42;98843.38;5076975;28;20501;-70
2022/05/26 01:46:31;;;;;;;7.82;4.22;;;;;;;8.50;59.73;98844.34;5076861;28;20039;-70
2022/05/26 01:48:56;;;;;;;9.32;3.60;;;;;;;8.53;59.44;98830.84;5068027;28;20059;-71
2022/05/26 01:51:30;;;;;;;5.93;3.33;;;;;;;8.58;60.00;98839.28;5070665;27;20044;-70
2022/05/26 01:54:07;;;;;;;8.77;3.70;;;;;;;8.63;60.01;98837.97;5064442;27;20055;-69
2022/05/26 01:56:44;;;;;;;5.55;3.95;;;;;;;8.63;60.59;98831.81;5036327;28;20519;-70
2022/05/26 01:59:12;;;;;;;5.45;3.70;;;;;;;8.65;61.10;98836.06;5069168;28;20545;-70
2022/05/26 02:01:40;;;;;;;5.05;3.53;;;;;;;8.66;60.64;98837.75;5071938;28;20080;-72
2022/05/26 02:04:10;;;;;;;8.45;4.25;;;;;;;8.65;61.28;98828.09;5073588;28;20040;-73
2022/05/26 02:06:40;;;;;;;5.90;4.05;;;;;;;8.63;61.47;98834.47;5046505;28;20129;-69
2022/05/26 02:09:07;;;;;;;7.93;4.22;;;;;;;8.61;61.84;98821.31;5056247;28;20142;-70
2022/05/26 02:11:34;;;;;;;7.05;4.45;;;;;;;8.62;61.29;98816.84;5056086;28;20043;-72
2022/05/26 02:14:06;;;;;;;10.57;3.60;;;;;;;8.67;61.69;98812.88;5056078;28;20043;-67
2022/05/26 02:16:38;;;;;;;9.60;4.15;;;;;;;8.74;61.03;98813.25;5062362;27;20035;-68
2022/05/26 02:19:29;;;;;;;9.05;4.35;;;;;;;8.83;59.62;98807.22;5061065;27;20574;-70
2022/05/26 02:22:16;;;;;;;8.85;4.28;;;;;;;8.75;59.54;98804.31;5062285;28;20035;-69
2022/05/26 02:24:56;;;;;;;5.78;3.80;;;;;;;8.66;59.91;98815.66;5042875;28;20071;-75
2022/05/26 02:27:21;;;;;;;7.25;4.13;;;;;;;8.58;60.43;98808.25;5077134;27;20057;-68
2022/05/26 02:29:55;;;;;;;5.72;4.50;;;;;;;8.61;61.04;98817.81;5078075;27;20038;-66
2022/05/26 02:32:43;;;;;;;6.32;4.10;;;;;;;8.74;60.30;98818.56;5096931;27;20047;-68
2022/05/26 02:35:14;;;;;;;5.75;4.07;;;;;;;8.81;59.52;98810.94;5078399;27;20054;-70
2022/05/26 02:37:40;;;;;;;9.63;4.78;;;;;;;8.88;59.31;98822.81;5096897;27;20062;-66
2022/05/26 02:40:07;;;;;;;8.65;4.53;;;;;;;8.98;58.91;98811.34;5044378;27;20099;-67
2022/05/26 02:42:33;;;;;;;6.85;3.50;;;;;;;9.08;58.60;98811.47;5078309;27;20039;-74
2022/05/26 02:44:58;;;;;;;5.93;4.10;;;;;;;9.25;58.31;98812.81;5096984;27;20047;-70
2022/05/26 02:47:41;;;;;;;5.95;4.57;;;;;;;9.54;57.67;98813.97;5070237;27;20104;-71
2022/05/26 02:50:43;;;;;;;8.20;4.43;;;;;;;9.80;57.69;98810.06;5040704;27;20043;-71
2022/05/26 02:53:11;;;;;;;5.25;3.85;;;;;;;9.93;56.65;98806.41;5075054;27;20023;-70
2022/05/26 02:56:02;;;;;;;11.77;4.18;;;;;;;10.08;56.54;98805.13;5068288;27;20046;-73
2022/05/26 02:58:39;;;;;;;10.15;4.10;;;;;;;10.22;55.66;98804.00;5051858;27;20039;-75
2022/05/26 03:01:26;;;;;;;6.28;4.97;;;;;;;10.36;55.39;98790.38;5085650;27;20394;-74
2022/05/26 03:04:02;;;;;;;10.23;4.45;;;;;;;10.43;55.22;98794.22;5083857;27;20063;-74
2022/05/26 03:06:32;;;;;;;10.05;3.92;;;;;;;10.48;55.00;98792.88;5088781;27;20050;-72
2022/05/26 03:08:59;;;;;;;7.28;3.97;;;;;;;10.57;54.80;98790.38;5096256;27;20046;-71
2022/05/26 03:11:26;;;;;;;4.90;3.85;;;;;;;10.65;54.93;98785.25;5094086;27;20142;-71
2022/05/26 03:13:51;;;;;;;7.82;4.28;;;;;;;10.75;55.16;98783.47;5057476;28;20043;-70
2022/05/26 03:16:17;;;;;;;8.45;4.10;;;;;;;10.84;55.38;98772.84;5079901;27;20088;-67
2022/05/26 03:18:41;;;;;;;10.57;4.53;;;;;;;10.94;55.49;98774.75;5083482;27;20095;-70
2022/05/26 03:21:07;;;;;;;9.85;4.47;;;;;;;11.01;55.29;98766.06;5075889;28;20043;-68
2022/05/26 03:23:33;;;;;;;6.07;4.15;;;;;;;11.09;55.76;98768.91;5056512;27;20401;-69
2022/05/26 03:25:59;;;;;;;5.88;4.00;;;;;;;11.18;55.66;98770.75;5073223;27;20051;-69
2022/05/26 03:28:25;;;;;;;6.28;4.78;;;;;;;11.24;54.47;98770.25;5071816;27;20218;-69
2022/05/26 03:30:51;;;;;;;7.13;3.95;;;;;;;11.33;53.83;98768.56;5076266;27;20510;-64
2022/05/26 03:33:16;;;;;;;6.88;4.13;;;;;;;11.41;52.92;98767.88;5059743;27;20069;-68
2022/05/26 03:41:18;;;;;;;6.53;4.70;;;;;;;11.86;53.47;98746.94;4973221;28;20622;-67
2022/05/26 03:43:46;;;;;;;8.48;4.20;;;;;;;12.00;53.56;98747.38;4973240;28;20058;-67
2022/05/26 03:46:12;;;;;;;9.85;4.47;;;;;;;12.04;52.25;98734.59;4989692;28;20084;-66
2022/05/26 03:48:38;;;;;;;8.93;4.25;;;;;;;12.07;51.68;98739.66;4973025;28;20112;-67
2022/05/26 03:51:04;;;;;;;11.05;4.55;;;;;;;12.09;50.73;98734.97;4973383;28;20045;-66
2022/05/26 03:53:29;;;;;;;5.50;4.10;;;;;;;12.16;50.26;98741.47;4956810;28;20463;-67
2022/05/26 03:55:54;;;;;;;6.97;3.90;;;;;;;12.26;50.36;98730.78;4956671;28;20042;-67
2022/05/26 03:58:19;;;;;;;9.10;5.32;;;;;;;12.34;49.82;98733.56;4989478;28;20057;-68
2022/05/26 04:00:44;;;;;;;9.02;4.38;;;;;;;12.38;49.22;98729.63;4989515;28;20053;-67
2022/05/26 04:03:09;;;;;;;9.38;4.47;;;;;;;12.43;49.20;98730.03;4973062;28;20053;-68
2022/05/26 04:05:34;;;;;;;6.97;4.13;;;;;;;12.45;49.00;98728.06;4972935;28;20064;-67
2022/05/26 04:07:59;;;;;;;7.10;4.30;;;;;;;12.45;48.84;98732.56;4956491;28;20132;-66
2022/05/26 04:10:24;;;;;;;9.57;4.43;;;;;;;12.44;48.45;98717.50;4973342;28;20045;-73
2022/05/26 04:12:49;;;;;;;6.10;3.83;;;;;;;12.47;49.42;98723.41;4989542;28;20544;-72
2022/05/26 04:15:16;;;;;;;6.10;4.15;;;;;;;12.50;49.72;98709.78;4974100;28;20496;-72
2022/05/26 04:17:41;;;;;;;5.15;4.38;;;;;;;12.54;48.87;98708.47;5019166;28;20058;-72
2022/05/26 04:20:09;;;;;;;9.68;4.95;;;;;;;12.55;48.48;98706.66;5098784;28;20121;-72
2022/05/26 04:22:34;;;;;;;8.48;4.50;;;;;;;12.56;48.81;98698.47;5094870;28;20318;-67
2022/05/26 04:24:59;;;;;;;8.82;5.05;;;;;;;12.71;48.61;98706.88;5076661;28;20063;-69
2022/05/26 04:27:27;;;;;;;9.65;4.97;;;;;;;12.87;48.07;98700.91;5098171;27;20059;-68
2022/05/26 04:29:52;;;;;;;12.45;5.25;;;;;;;13.06;47.95;98695.50;5080559;27;20042;-68
2022/05/26 04:32:17;;;;;;;8.13;5.28;;;;;;;13.30;47.80;98695.81;5080163;27;20088;-68
2022/05/26 04:34:45;;;;;;;9.75;4.38;;;;;;;13.53;47.12;98698.06;5098667;27;20133;-69
2022/05/26 04:37:10;;;;;;;8.15;5.00;;;;;;;13.86;46.81;98696.56;5063574;27;20582;-67
2022/05/26 04:39:35;;;;;;;8.25;5.00;;;;;;;14.16;46.85;98691.63;5080037;27;20463;-66
2022/05/26 04:42:02;;;;;;;7.57;4.97;;;;;;;14.52;45.71;98686.22;5098534;27;20038;-68
2022/05/26 04:44:32;;;;;;;8.63;5.75;;;;;;;15.01;45.08;98694.56;5079958;27;20042;-67
2022/05/26 04:46:57;;;;;;;9.38;5.00;;;;;;;15.41;43.40;98681.28;5079759;27;20089;-67
2022/05/26 04:49:21;;;;;;;9.40;4.57;;;;;;;15.72;43.04;98680.69;5094923;27;20043;-67
2022/05/26 04:51:46;;;;;;;7.75;4.78;;;;;;;15.98;42.46;98676.88;5091361;27;20040;-67
2022/05/26 04:54:11;;;;;;;11.82;5.18;;;;;;;16.42;41.68;98668.44;5103235;27;20050;-67
2022/05/26 04:56:37;;;;;;;8.85;4.40;;;;;;;16.84;40.08;98670.03;5097918;27;20046;-68
2022/05/26 04:59:02;;;;;;;7.28;4.40;;;;;;;17.17;39.08;98676.16;5065051;27;20508;-67
2022/05/26 05:01:27;;;;;;;8.98;4.75;;;;;;;17.55;38.96;98663.66;5068874;27;20096;-69
2022/05/26 05:03:52;;;;;;;9.30;4.63;;;;;;;17.97;38.41;98668.63;5071597;27;20043;-68
2022/05/26 05:06:17;;;;;;;7.57;4.82;;;;;;;18.41;37.11;98675.00;5080072;27;20515;-67
2022/05/26 05:08:42;;;;;;;5.90;4.15;;;;;;;18.74;36.54;98669.31;5097636;27;20464;-68
2022/05/26 05:11:09;;;;;;;9.10;4.72;;;;;;;19.01;35.84;98671.38;5096159;27;20046;-67
2022/05/26 05:13:34;;;;;;;14.63;5.05;;;;;;;19.01;35.23;98665.97;5078078;27;20042;-68
2022/05/26 05:16:29;;;;;;;8.77;4.95;;;;;;;18.91;36.50;98667.28;5063344;27;20047;-69
2022/05/26 05:18:55;;;;;;;7.25;4.60;;;;;;;18.88;35.59;98671.19;5094289;27;20047;-68
2022/05/26 05:21:25;;;;;;;7.75;4.88;;;;;;;19.10;35.46;98670.25;5062157;27;20039;-68
2022/05/26 05:23:57;;;;;;;6.90;4.80;;;;;;;19.41;34.88;98664.59;5062381;27;20039;-66
2022/05/26 05:26:27;;;;;;;7.30;5.10;;;;;;;19.76;34.46;98668.34;5078999;27;20055;-68
2022/05/26 05:28:57;;;;;;;5.80;4.20;;;;;;;20.19;34.81;98671.09;5079318;27;20509;-69
2022/05/26 05:31:32;;;;;;;11.02;4.57;;;;;;;20.51;34.47;98667.84;5062312;27;20046;-70
2022/05/26 05:34:00;;;;;;;11.68;4.60;;;;;;;20.79;33.09;98669.69;5062185;27;20476;-68
2022/05/26 05:36:28;;;;;;;8.20;4.55;;;;;;;20.94;32.09;98673.97;5079440;27;20111;-68
2022/05/26 05:38:54;;;;;;;6.20;4.05;;;;;;;21.14;31.78;98674.06;5060702;27;20126;-67
2022/05/26 05:41:20;;;;;;;6.13;4.10;;;;;;;21.41;31.79;98672.38;5079030;27;20049;-66
2022/05/26 05:43:45;;;;;;;6.80;4.68;;;;;;;21.68;31.38;98667.84;5061963;27;20051;-67
2022/05/26 05:46:11;;;;;;;8.43;4.95;;;;;;;22.06;30.41;98665.47;5079082;27;20039;-67
2022/05/26 05:48:36;;;;;;;7.75;4.50;;;;;;;22.44;29.56;98658.41;5079840;27;20104;-68
2022/05/26 05:51:01;;;;;;;5.90;4.00;;;;;;;22.96;28.87;98664.00;5079729;27;20043;-68
2022/05/26 05:53:26;;;;;;;6.40;3.90;;;;;;;23.53;28.18;98647.72;5097153;27;20042;-67
2022/05/26 05:55:51;;;;;;;7.45;4.60;;;;;;;24.11;27.66;98652.19;5080028;27;20130;-67
2022/05/26 05:58:16;;;;;;;6.18;4.05;;;;;;;24.64;26.90;98659.97;5046653;27;20031;-66
2022/05/26 06:00:42;;;;;;;8.30;4.22;;;;;;;24.68;26.23;98651.13;5063823;27;20088;-67
2022/05/26 06:03:06;;;;;;;5.30;3.80;;;;;;;24.95;26.26;98652.56;5097648;27;20058;-66
2022/05/26 06:05:32;;;;;;;6.53;4.15;;;;;;;25.49;25.41;98650.06;5079202;27;20038;-67
2022/05/26 06:07:57;;;;;;;4.93;3.80;;;;;;;26.25;24.66;98649.41;5080765;27;20050;-68
2022/05/26 06:10:22;;;;;;;7.30;4.40;;;;;;;27.13;23.61;98649.38;5048390;27;20141;-68
2022/05/26 06:12:47;;;;;;;7.93;4.53;;;;;;;28.10;22.92;98641.22;5080541;27;20126;-68
2022/05/26 06:15:13;;;;;;;12.32;4.68;;;;;;;29.06;22.20;98647.47;5078763;27;20042;-68
2022/05/26 06:17:38;;;;;;;8.18;4.18;;;;;;;29.40;21.01;98660.03;5097511;27;20042;-67
2022/05/26 06:20:04;;;;;;;7.93;4.75;;;;;;;29.21;21.03;98651.25;5079341;27;20035;-73
2022/05/26 06:22:30;;;;;;;7.93;4.75;;;;;;;29.15;21.05;98643.19;5064940;27;20042;-73
2022/05/26 06:24:55;;;;;;;8.20;4.30;;;;;;;29.50;20.49;98649.16;5064735;27;20183;-73
2022/05/26 06:30:11;;;;;;;5.75;3.72;;;;;;;31.00;19.72;98636.31;5097900;27;20066;-75
2022/05/26 06:38:21;;;;;;;6.40;4.30;;;;;;;32.37;17.59;98616.69;5013511;28;20151;-74
2022/05/26 06:40:47;;;;;;;5.55;4.38;;;;;;;32.46;17.66;98620.56;5013794;28;20099;-73
2022/05/26 06:43:14;;;;;;;6.90;4.50;;;;;;;32.06;17.78;98621.31;5013773;28;20064;-73
2022/05/26 06:45:39;;;;;;;4.88;4.32;;;;;;;32.19;17.82;98619.97;4980632;28;20106;-72
2022/05/26 06:48:04;;;;;;;9.25;4.53;;;;;;;32.58;17.66;98626.63;5016105;28;20460;-74
2022/05/26 06:50:29;;;;;;;7.03;4.35;;;;;;;33.25;17.34;98627.38;4997558;28;20574;-73
2022/05/26 06:52:54;;;;;;;5.28;4.50;;;;;;;33.32;16.33;98622.34;4997208;28;20487;-73
2022/05/26 06:55:19;;;;;;;7.00;4.50;;;;;;;33.86;16.57;98625.19;4980608;28;20091;-72
2022/05/26 06:57:44;;;;;;;6.32;4.57;;;;;;;34.26;16.03;98615.78;4996815;28;20072;-72
2022/05/26 07:00:10;;;;;;;7.88;4.63;;;;;;;34.12;15.66;98615.59;4997151;28;20052;-73
2022/05/26 07:02:35;;;;;;;7.80;4.75;;;;;;;34.68;15.54;98615.16;5013584;28;20079;-73
2022/05/26 07:05:01;;;;;;;7.75;4.68;;;;;;;35.57;15.23;98621.94;5013581;28;20075;-73
2022/05/26 07:07:28;;;;;;;8.25;4.50;;;;;;;36.57;14.68;98614.41;4997400;28;20440;-71
2022/05/26 07:09:57;;;;;;;6.35;4.60;;;;;;;37.01;14.09;98611.94;4997814;28;20060;-72
2022/05/26 07:12:23;;;;;;;5.18;4.40;;;;;;;37.48;14.15;98607.13;5014236;28;20051;-74
2022/05/26 07:14:47;;;;;;;6.00;4.85;;;;;;;38.36;13.09;98605.72;5033880;27;20131;-74
2022/05/26 07:17:12;;;;;;;7.60;4.97;;;;;;;38.34;12.68;98605.19;5097870;27;20133;-74
2022/05/26 07:19:38;;;;;;;7.05;5.25;;;;;;;37.53;12.85;98607.03;5096736;27;20046;-75
2022/05/26 07:22:03;;;;;;;5.57;4.75;;;;;;;37.46;12.81;98606.63;5099281;27;20078;-67
2022/05/26 07:24:28;;;;;;;7.65;5.10;;;;;;;37.22;12.13;98603.25;5097291;27;20031;-69
2022/05/26 07:26:53;;;;;;;7.57;5.43;;;;;;;36.88;12.36;98604.41;5089105;27;20100;-68
2022/05/26 07:29:18;;;;;;;7.13;4.43;;;;;;;37.16;12.50;98594.16;5114711;27;20039;-68
2022/05/26 07:31:43;;;;;;;6.93;4.90;;;;;;;37.42;12.49;98600.03;5117502;27;20051;-69
2022/05/26 07:34:08;;;;;;;7.10;5.05;;;;;;;37.15;12.14;98588.88;5116503;27;20023;-68
2022/05/26 07:42:11;;;;;;;12.07;5.18;;;;;;;38.73;11.66;98578.59;5088568;27;20054;-69
2022/05/26 07:44:39;;;;;;;7.82;5.20;;;;;;;39.35;11.71;98586.91;5089522;27;20039;-68
2022/05/26 07:47:06;;;;;;;5.90;5.32;;;;;;;39.69;11.40;98580.63;5096690;27;20045;-67
2022/05/26 07:49:35;;;;;;;6.13;5.38;;;;;;;40.33;11.05;98573.28;5096367;27;20047;-69
2022/05/26 07:52:01;;;;;;;7.05;5.45;;;;;;;41.36;10.61;98579.72;5096012;28;20043;-70
2022/05/26 07:54:26;;;;;;;7.63;5.80;;;;;;;41.21;10.16;98569.91;5060298;28;20043;-68
2022/05/26 07:56:51;;;;;;;10.93;6.57;;;;;;;41.29;10.06;98572.69;5095492;27;20031;-67
2022/05/26 07:59:16;;;;;;;14.55;5.82;;;;;;;41.16;10.01;98565.34;5059743;28;20432;-67
2022/05/26 08:01:40;;;;;;;7.72;5.80;;;;;;;40.52;10.58;98556.16;5078801;27;20043;-68
2022/05/26 08:04:07;;;;;;;7.05;5.68;;;;;;;40.02;10.71;98556.69;5100002;27;20408;-67
2022/05/26 08:06:32;;;;;;;8.23;5.38;;;;;;;39.17;10.88;98553.38;5081064;27;20422;-68
2022/05/26 08:08:56;;;;;;;6.95;5.95;;;;;;;37.81;11.63;98546.63;5081070;27;20481;-68
2022/05/26 08:11:21;;;;;;;5.93;5.32;;;;;;;36.29;12.24;98541.31;5081495;27;20046;-68
2022/05/26 08:13:46;;;;;;;7.47;4.93;;;;;;;34.93;13.53;98531.84;5063426;27;20046;-67
2022/05/26 08:16:10;;;;;;;6.30;4.93;;;;;;;33.89;14.24;98536.94;5099878;27;20047;-74
2022/05/26 08:18:35;;;;;;;8.80;5.45;;;;;;;33.02;14.88;98529.38;5081120;27;20034;-73
2022/05/26 08:21:12;;;;;;;6.70;4.95;;;;;;;34.00;15.01;98529.38;5099232;27;20039;-74
2022/05/26 08:23:38;;;;;;;11.15;4.65;;;;;;;35.59;14.27;98528.22;5081938;27;20102;-74
2022/05/26 08:26:03;;;;;;;7.57;5.15;;;;;;;37.60;13.00;98528.72;5091994;27;20119;-73
2022/05/26 08:28:28;;;;;;;9.27;5.45;;;;;;;39.27;11.08;98518.00;5060665;28;20044;-74
2022/05/26 08:30:53;;;;;;;6.25;4.95;;;;;;;39.94;10.33;98520.41;5043502;28;20093;-66
2022/05/26 08:33:17;;;;;;;5.65;5.15;;;;;;;40.69;9.57;98516.16;5043403;28;20054;-74
2022/05/26 08:35:42;;;;;;;7.00;6.10;;;;;;;41.34;9.71;98510.09;5060497;28;20077;-73
2022/05/26 08:38:07;;;;;;;11.77;6.45;;;;;;;42.63;9.67;98517.41;5078485;28;20482;-74
2022/05/26 08:40:40;;;;;;;9.73;6.90;;;;;;;44.00;8.72;98533.50;5060284;28;20122;-72
2022/05/26 08:43:09;;;;;;;7.28;6.57;;;;;;;44.19;8.30;98520.78;5043553;28;20100;-74
2022/05/26 08:45:38;;;;;;;8.23;6.90;;;;;;;44.19;8.33;98518.78;5060372;28;20169;-72
2022/05/26 08:48:04;;;;;;;7.18;6.50;;;;;;;42.77;9.30;98516.25;5079588;28;20494;-74
2022/05/26 08:50:34;;;;;;;8.35;7.53;;;;;;;42.00;9.08;98521.50;5044275;28;20036;-72
2022/05/26 08:53:19;;;;;;;9.05;6.35;;;;;;;41.37;9.07;98514.22;5058324;28;20051;-74
2022/05/26 08:55:47;;;;;;;7.45;6.65;;;;;;;39.85;9.60;98504.47;5040764;28;20043;-73
2022/05/26 08:58:17;;;;;;;9.38;5.85;;;;;;;39.88;9.35;98508.56;5039983;28;20052;-74
2022/05/26 09:00:44;;;;;;;7.22;6.50;;;;;;;39.27;9.60;98490.13;5040506;28;20070;-72
2022/05/26 09:03:18;;;;;;;6.40;5.85;;;;;;;40.16;9.21;98490.31;5039810;28;20452;-72
2022/05/26 09:05:45;;;;;;;7.68;6.22;;;;;;;41.12;9.31;98483.28;5061238;28;20515;-72
2022/05/26 09:13:50;;;;;;;9.43;8.57;;;;;;;44.99;8.00;98481.16;5039357;28;20047;-71
2022/05/26 09:16:15;;;;;;;8.52;7.75;;;;;;;44.15;7.70;98478.53;5057562;28;20044;-72
2022/05/26 09:18:40;;;;;;;10.48;6.70;;;;;;;41.39;8.49;98479.16;5056256;28;20036;-71
2022/05/26 09:21:31;;;;;;;8.25;6.28;;;;;;;40.07;9.35;98464.38;5057776;28;20048;-72
2022/05/26 09:24:30;;;;;;;7.20;6.07;;;;;;;39.52;9.07;98458.66;5054825;28;20076;-72
2022/05/26 09:26:58;;;;;;;7.65;5.90;;;;;;;37.45;10.43;98457.59;5039053;28;20055;-72
2022/05/26 09:29:29;;;;;;;5.75;5.25;;;;;;;37.03;11.01;98456.00;5073223;28;20040;-72
2022/05/26 09:31:56;;;;;;;5.93;5.43;;;;;;;37.35;10.63;98455.06;5039485;28;20197;-72
2022/05/26 09:34:23;;;;;;;6.00;5.40;;;;;;;38.81;10.44;98447.69;5039778;28;20102;-71
2022/05/26 09:36:52;;;;;;;6.22;5.63;;;;;;;40.22;9.22;98446.28;5039443;28;20557;-71
2022/05/26 09:39:24;;;;;;;7.50;5.88;;;;;;;41.05;8.90;98443.81;5023182;28;20063;-72
2022/05/26 09:41:52;;;;;;;6.55;5.95;;;;;;;41.91;8.83;98437.56;5039343;28;20044;-72
2022/05/26 09:44:40;;;;;;;7.60;6.40;;;;;;;42.72;8.60;98438.81;5057626;28;20047;-71
2022/05/26 09:47:25;;;;;;;6.97;6.30;;;;;;;43.06;8.10;98435.53;5057885;28;20044;-72
2022/05/26 09:49:53;;;;;;;7.60;6.93;;;;;;;42.42;7.68;98432.63;5057229;28;20047;-71
2022/05/26 09:52:25;;;;;;;7.10;5.85;;;;;;;41.79;8.63;98440.31;5022567;28;20035;-68
2022/05/26 09:55:10;;;;;;;7.43;6.50;;;;;;;41.33;8.51;98436.56;5055013;28;20044;-68
2022/05/26 09:57:36;;;;;;;6.80;6.10;;;;;;;40.26;8.79;98422.94;5056883;28;20410;-72
2022/05/26 10:00:01;;;;;;;8.07;6.88;;;;;;;38.21;9.94;98419.56;5038852;28;20043;-72
2022/05/26 10:02:40;;;;;;;6.80;5.50;;;;;;;37.96;10.58;98423.81;5056901;28;20494;-71
2022/05/26 10:05:37;;;;;;;6.20;5.55;;;;;;;38.42;10.18;98414.25;5038789;28;20051;-73
2022/05/26 10:08:08;;;;;;;5.53;5.00;;;;;;;38.56;10.03;98403.84;5072194;28;20048;-71
2022/05/26 10:10:59;;;;;;;6.93;5.95;;;;;;;40.09;9.76;98400.66;5021835;28;20510;-72
2022/05/26 10:13:27;;;;;;;6.90;6.30;;;;;;;41.18;9.36;98406.44;5021543;28;20135;-71
2022/05/26 10:16:03;;;;;;;7.68;6.45;;;;;;;42.21;8.45;98403.84;5056275;28;20613;-71
2022/05/26 10:18:49;;;;;;;8.15;6.35;;;;;;;40.82;8.60;98401.38;5038193;28;20050;-72
2022/05/26 10:21:48;;;;;;;7.43;6.13;;;;;;;38.76;10.23;98391.28;5056426;28;20650;-72
2022/05/26 10:24:33;;;;;;;7.93;5.32;;;;;;;36.53;11.18;98388.44;5054222;28;20479;-72
2022/05/26 10:27:20;;;;;;;8.40;4.57;;;;;;;34.27;12.20;98375.91;5056202;28;20044;-72
2022/05/26 10:30:33;;;;;;;6.10;4.70;;;;;;;32.26;13.16;98375.91;5056284;28;20410;-73
2022/05/26 10:33:14;;;;;;;7.60;4.82;;;;;;;30.54;14.40;98365.59;4958169;28;20607;-71
2022/05/26 10:35:56;;;;;;;5.80;4.53;;;;;;;29.12;15.51;98363.75;4958153;28;20053;-73
2022/05/26 10:39:16;;;;;;;4.45;4.05;;;;;;;28.14;16.23;98366.41;4941538;28;20037;-69
2022/05/26 10:41:47;;;;;;;7.70;4.18;;;;;;;26.73;18.09;98354.78;4897261;29;20094;-68
2022/05/26 10:44:21;;;;;;;5.03;4.10;;;;;;;25.74;19.15;98349.63;4897095;29;20052;-68
2022/05/26 10:46:58;;;;;;;9.02;4.28;;;;;;;25.52;19.71;98331.09;4897456;29;20045;-68
2022/05/26 10:49:40;;;;;;;5.65;4.10;;;;;;;25.63;19.88;98335.75;4897198;29;20058;-69
2022/05/26 10:52:16;;;;;;;6.45;4.40;;;;;;;25.70;20.70;98327.47;4896884;29;20427;-68
2022/05/26 10:55:08;;;;;;;5.78;3.90;;;;;;;25.81;19.90;98326.63;4897431;29;20044;-68
2022/05/26 10:57:44;;;;;;;7.47;4.05;;;;;;;25.57;20.20;98327.69;4895902;29;20063;-66
2022/05/26 11:00:17;;;;;;;6.70;4.00;;;;;;;25.18;20.21;98318.28;4897092;29;20039;-67
2022/05/26 11:02:57;;;;;;;6.03;4.07;;;;;;;24.84;20.69;98320.66;4896944;29;20063;-67
2022/05/26 11:05:31;;;;;;;8.70;4.07;;;;;;;24.57;20.26;98320.25;4896407;29;20059;-65
2022/05/26 11:08:04;;;;;;;;;;;;;;;24.37;21.08;98308.81;4878391;29;20050;-66
2022/05/26 11:10:41;;;;;;;4.72;3.70;;;;;;;23.65;22.03;98299.59;4976618;28;20019;-66
2022/05/26 11:13:15;;;;;;;6.65;3.95;;;;;;;23.66;22.18;98303.13;5010780;28;20041;-68
2022/05/26 11:18:49;;;;;;;4.80;3.72;;;;;;;23.51;21.53;98301.59;5049358;28;20129;-71
2022/05/26 11:21:19;;;;;;;9.57;4.03;;;;;;;23.21;21.93;98306.06;5057958;28;20041;-72
2022/05/26 11:23:44;;;;;;;6.95;4.30;;;;;;;22.79;22.68;98289.47;5077699;28;20053;-71
2022/05/26 11:26:33;;;;;;;5.78;3.83;;;;;;;22.57;23.36;98290.84;5052919;27;20136;-71
2022/05/26 11:29:11;;;;;;;7.10;4.18;;;;;;;22.70;23.39;98289.91;5083319;27;20043;-68
2022/05/26 11:38:30;;;;;;;5.03;3.80;;;;;;;23.08;23.05;98278.97;5057366;28;20035;-73
2022/05/26 11:41:01;;;;;;;5.30;3.40;;;;;;;23.25;22.66;98280.06;5057211;28;20051;-71
2022/05/26 11:43:29;;;;;;;5.15;3.83;;;;;;;22.86;23.32;98280.44;5050567;28;20035;-71
2022/05/26 11:45:55;;;;;;;5.15;3.95;;;;;;;22.90;22.99;98265.34;5076381;27;20065;-70
2022/05/26 11:48:32;;;;;;;5.75;3.92;;;;;;;22.86;23.23;98264.13;5066022;28;20088;-71
2022/05/26 11:50:58;;;;;;;6.68;4.10;;;;;;;22.74;23.65;98259.38;5033498;27;20158;-71
2022/05/26 11:53:39;;;;;;;6.43;3.53;;;;;;;23.10;22.94;98249.69;5068491;28;20040;-74
2022/05/26 11:56:30;;;;;;;6.95;3.90;;;;;;;23.28;22.79;98247.00;5054373;28;20465;-72
2022/05/26 11:59:20;;;;;;;4.65;3.38;;;;;;;23.17;23.14;98247.72;5047959;28;20046;-70
2022/05/26 12:02:08;;;;;;;6.53;4.20;;;;;;;22.71;23.79;98235.34;5083700;28;20043;-71
2022/05/26 12:04:38;;;;;;;8.25;3.92;;;;;;;22.59;24.38;98234.41;5079743;28;20631;-77
2022/05/26 12:07:26;;;;;;;6.70;3.83;;;;;;;22.61;24.49;98226.88;5067946;28;20414;-69
2022/05/26 12:09:59;;;;;;;7.13;4.50;;;;;;;22.77;24.93;98228.25;5059175;28;20060;-67
2022/05/26 12:12:24;;;;;;;6.13;3.88;;;;;;;22.89;24.62;98217.50;5049878;28;20044;-69
2022/05/26 12:14:55;;;;;;;12.35;3.97;;;;;;;22.99;24.28;98215.09;5048806;28;20050;-66
2022/05/26 12:17:41;;;;;;;9.25;4.60;;;;;;;23.04;24.59;98217.94;5032032;28;20054;-70
2022/05/26 12:20:25;;;;;;;6.90;3.95;;;;;;;23.01;24.50;98211.09;5043300;27;20172;-72
2022/05/26 12:22:50;;;;;;;7.63;3.92;;;;;;;22.80;24.99;98206.03;5096963;28;20051;-73
2022/05/26 12:25:22;;;;;;;8.10;4.40;;;;;;;22.77;24.65;98203.78;5093493;28;20042;-73
2022/05/26 12:28:15;;;;;;;6.10;4.13;;;;;;;22.54;24.77;98192.66;5067491;28;20039;-70